Perrin, Texas
Current Conditions -  °F | °C
As of 3:35 AM on Friday 31 Oct 2014 (Local Time) from KXBP Reporting Station
Clear Clear  
Wind Chill: 57°   Ceiling: Unl
Heat Index: 57°   Visibility: 10mi
Dew Point: 42°   Wind: 6mph
Humidity: 56%   Direction: 360°N
Pressure: 30.25"   Gusts: NA
Location:  33.03°N, 98.07°W
Report Text: KXBP 310835Z AUTO 36005KT 10SM CLR 14/05 A3025 RMK AO2 LTG DSNT SW T01400054
Loading
Personal Weather Stations






























Interactive Weather Map
Tropical Storm Tracking
New forecast layout! Learn more

10-Day Weather Forecast

Advertisements
Track Severe Weather on mobile